bureau de piste

Plus d’information sur les terrains : LFMD et VALBERG

METAR LFMD 192030Z AUTO 02005KT 340V050 CAVOK 04/01 Q1001

TAF LFMD 191400Z 1915/2015 09010KT 9999 BKN040   BECMG 1917/1919 36006KT CAVOK   BECMG 2003/2005 NSC   BECMG 2010/2012 14010KT

INFORMATION ADDS - 2045 UTC 19 Nov 2018

Les commentaires sont clos.